Time;durP1;ratioP1;P1;durP2;ratioP2;P2;SDS_P1;SDS_P2;PMS_P1;PMS_P2;Temp;Humidity;BMP_temperature;BMP_pressure;BME280_temperature;BME280_humidity;BME280_pressure;Samples;Min_cycle;Max_cycle;Signal;HPM_P1;HPM_P2
2023/07/18 00:01:27;;;;;;;10.20;3.20;;;14.00;99.90;;;;;;4967128;28;20049;-58
2023/07/18 00:03:52;;;;;;;6.85;3.40;;;14.00;99.90;;;;;;4962522;28;20033;-59
2023/07/18 00:06:18;;;;;;;10.05;3.80;;;14.00;99.90;;;;;;4970251;28;20031;-58
2023/07/18 00:08:44;;;;;;;7.65;2.95;;;13.90;99.90;;;;;;4969850;28;20047;-60
2023/07/18 00:11:10;;;;;;;11.15;3.33;;;13.90;99.90;;;;;;4971199;28;20027;-58
2023/07/18 00:13:35;;;;;;;7.38;3.58;;;13.90;99.90;;;;;;4968426;28;20034;-57
2023/07/18 00:16:01;;;;;;;9.60;3.42;;;14.00;99.90;;;;;;4970336;28;20023;-57
2023/07/18 00:18:26;;;;;;;10.43;3.88;;;14.00;99.90;;;;;;4970751;28;20030;-58
2023/07/18 00:20:52;;;;;;;9.30;3.55;;;13.90;99.90;;;;;;4969942;28;20054;-58
2023/07/18 00:23:18;;;;;;;9.65;3.40;;;13.90;99.90;;;;;;4968663;28;20030;-58
2023/07/18 00:25:44;;;;;;;9.13;3.30;;;13.90;99.90;;;;;;4966409;28;20039;-52
2023/07/18 00:28:09;;;;;;;6.68;3.30;;;13.90;99.90;;;;;;4961209;28;20027;-54
2023/07/18 00:30:35;;;;;;;10.95;5.03;;;14.00;99.90;;;;;;4964933;28;20110;-56
2023/07/18 00:33:00;;;;;;;5.22;3.10;;;13.90;99.90;;;;;;4966236;28;20035;-57
2023/07/18 00:35:27;;;;;;;9.07;3.83;;;14.00;99.90;;;;;;4962007;28;20461;-58
2023/07/18 00:37:53;;;;;;;12.10;3.63;;;13.90;99.90;;;;;;4963857;28;20027;-57
2023/07/18 00:40:18;;;;;;;10.70;3.65;;;13.90;99.90;;;;;;4966198;28;20101;-58
2023/07/18 00:42:47;;;;;;;8.68;3.88;;;13.90;99.90;;;;;;4961291;28;20050;-58
2023/07/18 00:45:13;;;;;;;12.32;4.07;;;14.00;99.90;;;;;;4963566;28;20113;-57
2023/07/18 00:47:44;;;;;;;12.93;4.00;;;14.00;99.90;;;;;;4966406;28;20381;-58
2023/07/18 00:50:14;;;;;;;12.35;3.58;;;14.00;99.90;;;;;;4962991;28;20073;-57
2023/07/18 00:52:43;;;;;;;5.72;3.08;;;14.00;99.90;;;;;;4960614;28;20042;-56
2023/07/18 00:55:10;;;;;;;9.77;4.00;;;13.90;99.90;;;;;;4962387;28;20069;-58
2023/07/18 00:57:38;;;;;;;14.43;3.75;;;13.90;99.90;;;;;;4959936;28;20037;-58
2023/07/18 01:00:11;;;;;;;6.35;3.22;;;13.80;99.90;;;;;;4964501;28;20184;-58
2023/07/18 01:02:38;;;;;;;6.90;3.08;;;13.70;99.90;;;;;;4961809;28;20461;-56
2023/07/18 01:05:04;;;;;;;15.38;3.42;;;13.70;99.90;;;;;;4967870;28;20386;-58
2023/07/18 01:07:30;;;;;;;8.23;3.90;;;13.60;99.90;;;;;;4961920;28;20053;-57
2023/07/18 01:10:18;;;;;;;10.38;3.78;;;13.60;99.90;;;;;;4964112;28;20069;-56
2023/07/18 01:12:44;;;;;;;14.52;3.90;;;13.50;99.90;;;;;;4962081;28;20113;-55
2023/07/18 01:15:13;;;;;;;11.82;3.20;;;13.50;99.90;;;;;;4966135;28;20481;-58
2023/07/18 01:17:44;;;;;;;13.32;4.50;;;13.50;99.90;;;;;;4963028;28;20046;-55
2023/07/18 01:20:13;;;;;;;6.43;3.80;;;13.40;99.90;;;;;;4965432;28;20042;-55
2023/07/18 01:22:39;;;;;;;7.50;3.70;;;13.40;99.90;;;;;;4961731;28;20401;-53
2023/07/18 01:25:05;;;;;;;10.52;3.85;;;13.50;99.90;;;;;;4965014;28;20024;-58
2023/07/18 01:27:31;;;;;;;8.50;3.33;;;13.40;99.90;;;;;;4961101;28;21322;-57
2023/07/18 01:29:57;;;;;;;8.77;4.07;;;13.40;99.90;;;;;;4963311;28;20042;-52
2023/07/18 01:32:22;;;;;;;9.50;3.25;;;13.30;99.90;;;;;;4963085;28;20033;-58
2023/07/18 01:34:48;;;;;;;6.15;3.15;;;13.40;99.90;;;;;;4959724;28;20046;-55
2023/07/18 01:37:15;;;;;;;12.25;3.70;;;13.30;99.90;;;;;;4962115;28;20038;-57
2023/07/18 01:39:41;;;;;;;10.63;3.55;;;13.30;99.90;;;;;;4961425;28;20114;-58
2023/07/18 01:42:06;;;;;;;9.52;3.58;;;13.30;99.90;;;;;;4961586;28;20110;-57
2023/07/18 01:44:33;;;;;;;9.75;3.72;;;13.30;99.90;;;;;;4960216;28;20054;-59
2023/07/18 01:46:59;;;;;;;8.68;3.17;;;13.30;99.90;;;;;;4967332;28;20093;-59
2023/07/18 01:49:25;;;;;;;7.45;3.25;;;13.20;99.90;;;;;;4968544;28;20102;-56
2023/07/18 01:51:50;;;;;;;10.90;4.05;;;13.20;99.90;;;;;;4967289;28;20118;-58
2023/07/18 01:54:16;;;;;;;9.77;3.92;;;13.10;99.90;;;;;;4970565;28;20539;-59
2023/07/18 01:56:41;;;;;;;7.85;3.65;;;13.10;99.90;;;;;;4968217;28;20086;-56
2023/07/18 01:59:07;;;;;;;12.30;3.83;;;13.10;99.90;;;;;;4971202;28;20077;-57
2023/07/18 02:01:33;;;;;;;11.82;3.78;;;13.10;99.90;;;;;;4966423;28;20085;-55
2023/07/18 02:03:59;;;;;;;6.07;3.88;;;13.00;99.90;;;;;;4970122;28;20041;-56
2023/07/18 02:06:25;;;;;;;8.20;4.85;;;13.00;99.90;;;;;;4967344;28;20027;-53
2023/07/18 02:08:51;;;;;;;8.85;3.70;;;12.90;99.90;;;;;;4967723;28;20031;-57
2023/07/18 02:11:17;;;;;;;7.25;3.80;;;12.90;99.90;;;;;;4968588;28;20035;-59
2023/07/18 02:13:43;;;;;;;9.30;3.53;;;12.90;99.90;;;;;;4966842;28;20093;-56
2023/07/18 02:16:08;;;;;;;9.85;3.95;;;12.90;99.90;;;;;;4969855;28;20109;-57
2023/07/18 02:18:34;;;;;;;9.23;3.78;;;12.80;99.90;;;;;;4967447;28;20038;-59
2023/07/18 02:20:59;;;;;;;8.65;3.45;;;12.80;99.90;;;;;;4967430;28;20091;-59
2023/07/18 02:23:25;;;;;;;10.63;3.67;;;12.70;99.90;;;;;;4968202;28;20041;-57
2023/07/18 02:25:50;;;;;;;19.23;4.85;;;12.70;99.90;;;;;;4968832;28;20030;-59
2023/07/18 02:28:16;;;;;;;7.22;4.13;;;12.70;99.90;;;;;;4968702;28;20026;-57
2023/07/18 02:30:42;;;;;;;13.27;3.85;;;12.70;99.90;;;;;;4966980;28;20162;-58
2023/07/18 02:33:08;;;;;;;7.82;3.78;;;12.70;99.90;;;;;;4965581;28;20034;-58
2023/07/18 02:35:33;;;;;;;7.32;3.80;;;12.70;99.90;;;;;;4967580;28;20397;-59
2023/07/18 02:37:59;;;;;;;9.20;3.53;;;12.70;99.90;;;;;;4970428;28;20090;-58
2023/07/18 02:40:24;;;;;;;8.27;3.97;;;12.60;99.90;;;;;;4969109;28;20034;-59
2023/07/18 02:42:50;;;;;;;14.65;3.55;;;12.60;99.90;;;;;;4967830;28;20030;-57
2023/07/18 02:45:15;;;;;;;9.73;3.67;;;12.60;99.90;;;;;;4966738;28;20035;-58
2023/07/18 02:47:41;;;;;;;9.23;4.35;;;12.50;99.90;;;;;;4966807;28;20036;-59
2023/07/18 02:50:08;;;;;;;12.95;4.88;;;12.40;99.90;;;;;;4964941;28;20037;-54
2023/07/18 02:52:34;;;;;;;7.47;3.35;;;12.40;99.90;;;;;;4966292;28;20026;-59
2023/07/18 02:54:59;;;;;;;7.57;3.58;;;12.40;99.90;;;;;;4962865;28;20030;-59
2023/07/18 02:57:25;;;;;;;9.25;4.05;;;12.50;99.90;;;;;;4961765;28;20504;-58
2023/07/18 02:59:51;;;;;;;11.32;3.75;;;12.40;99.90;;;;;;4967571;28;20054;-59
2023/07/18 03:02:17;;;;;;;7.38;3.75;;;12.40;99.90;;;;;;4966227;28;20477;-57
2023/07/18 03:04:45;;;;;;;9.73;3.60;;;12.40;99.90;;;;;;4965834;28;20042;-59
2023/07/18 03:07:13;;;;;;;14.98;4.20;;;12.30;99.90;;;;;;4967857;28;20035;-59
2023/07/18 03:09:39;;;;;;;12.20;5.45;;;12.30;99.90;;;;;;4965313;28;20125;-58
2023/07/18 03:12:06;;;;;;;7.05;3.47;;;12.30;99.90;;;;;;4965066;28;20154;-58
2023/07/18 03:14:31;;;;;;;9.27;4.07;;;12.20;99.90;;;;;;4965587;28;20113;-58
2023/07/18 03:16:57;;;;;;;8.02;4.30;;;12.30;99.90;;;;;;4972254;28;20430;-59
2023/07/18 03:19:23;;;;;;;12.93;4.55;;;12.20;99.90;;;;;;4971508;28;20035;-59
2023/07/18 03:21:48;;;;;;;8.80;3.58;;;12.20;99.90;;;;;;4971457;28;20374;-59
2023/07/18 03:24:14;;;;;;;11.32;3.58;;;12.20;99.90;;;;;;4972740;28;20029;-58
2023/07/18 03:26:39;;;;;;;8.50;3.38;;;12.20;99.90;;;;;;4971251;28;20501;-57
2023/07/18 03:29:06;;;;;;;8.60;3.80;;;12.10;99.90;;;;;;4970176;28;20027;-54
2023/07/18 03:31:35;;;;;;;8.57;3.95;;;12.10;99.90;;;;;;4971024;28;20026;-54
2023/07/18 03:34:01;;;;;;;8.27;3.90;;;12.10;99.90;;;;;;4969346;28;20035;-58
2023/07/18 03:36:27;;;;;;;8.30;3.42;;;12.10;99.90;;;;;;4970953;28;20045;-58
2023/07/18 03:38:53;;;;;;;11.40;4.47;;;12.10;99.90;;;;;;4973441;28;20399;-59
2023/07/18 03:41:19;;;;;;;11.95;4.78;;;12.00;99.90;;;;;;4972229;28;20023;-59
2023/07/18 03:43:44;;;;;;;8.55;4.88;;;12.00;99.90;;;;;;4969391;28;20023;-60
2023/07/18 03:46:11;;;;;;;13.85;5.00;;;12.00;99.90;;;;;;4969557;28;20051;-59
2023/07/18 03:48:37;;;;;;;9.50;4.63;;;11.90;99.90;;;;;;4971368;28;20109;-53
2023/07/18 03:51:06;;;;;;;8.68;3.70;;;11.90;99.90;;;;;;4971994;28;20031;-56
2023/07/18 03:53:32;;;;;;;11.02;3.90;;;11.90;99.90;;;;;;4969265;28;20035;-59
2023/07/18 03:56:05;;;;;;;12.15;4.25;;;12.00;99.90;;;;;;4969796;28;20023;-58
2023/07/18 03:58:31;;;;;;;10.80;4.95;;;11.90;99.90;;;;;;4969051;28;20089;-59
2023/07/18 04:00:56;;;;;;;10.00;4.25;;;12.00;99.90;;;;;;4969064;28;20035;-59
2023/07/18 04:03:22;;;;;;;11.07;3.88;;;12.00;99.90;;;;;;4972191;28;20416;-60
2023/07/18 04:05:47;;;;;;;16.23;4.32;;;12.00;99.90;;;;;;4969772;28;20125;-58
2023/07/18 04:08:13;;;;;;;6.70;3.92;;;12.00;99.90;;;;;;4972209;28;20039;-57
2023/07/18 04:10:38;;;;;;;9.70;4.53;;;12.00;99.90;;;;;;4969064;28;20049;-58
2023/07/18 04:13:04;;;;;;;7.45;3.53;;;12.00;99.90;;;;;;4971917;28;20030;-58
2023/07/18 04:15:29;;;;;;;10.38;4.85;;;12.10;99.90;;;;;;4969886;28;20082;-56
2023/07/18 04:17:55;;;;;;;11.70;4.38;;;12.10;99.90;;;;;;4971427;28;20026;-58
2023/07/18 04:20:21;;;;;;;12.45;4.25;;;12.10;99.90;;;;;;4970101;28;20059;-58
2023/07/18 04:22:47;;;;;;;11.98;4.50;;;12.10;99.90;;;;;;4969985;28;20038;-58
2023/07/18 04:25:13;;;;;;;7.60;3.92;;;12.20;99.90;;;;;;4972405;28;20030;-59
2023/07/18 04:27:38;;;;;;;8.60;4.03;;;12.20;99.90;;;;;;4969038;28;20031;-58
2023/07/18 04:30:04;;;;;;;13.45;4.18;;;12.20;99.90;;;;;;4973029;28;20489;-58
2023/07/18 04:32:30;;;;;;;7.30;4.13;;;12.20;99.90;;;;;;4971474;28;20109;-54
2023/07/18 04:34:56;;;;;;;9.27;4.05;;;12.20;99.90;;;;;;4969929;28;20495;-56
2023/07/18 04:37:21;;;;;;;11.63;4.15;;;12.30;99.90;;;;;;4970045;28;20023;-59
2023/07/18 04:39:47;;;;;;;8.60;4.28;;;12.30;99.90;;;;;;4970197;28;20026;-60
2023/07/18 04:42:12;;;;;;;6.97;4.20;;;12.40;99.90;;;;;;4986130;28;20062;-59
2023/07/18 04:44:38;;;;;;;11.27;4.07;;;12.40;99.90;;;;;;4970857;28;20097;-57
2023/07/18 04:47:04;;;;;;;8.82;3.97;;;12.40;99.90;;;;;;4970293;28;20038;-59
2023/07/18 04:49:29;;;;;;;7.43;4.18;;;12.50;99.90;;;;;;4968866;28;20051;-58
2023/07/18 04:51:55;;;;;;;10.57;5.05;;;12.60;99.90;;;;;;4969235;28;20023;-58
2023/07/18 04:54:21;;;;;;;11.35;4.82;;;12.60;99.90;;;;;;4971958;28;20401;-58
2023/07/18 04:56:47;;;;;;;13.40;6.18;;;12.70;99.90;;;;;;4971279;28;20055;-58
2023/07/18 04:59:12;;;;;;;10.50;4.00;;;12.80;99.90;;;;;;4971852;28;20378;-60
2023/07/18 05:01:40;;;;;;;8.82;3.90;;;12.80;99.90;;;;;;4968320;28;20035;-58
2023/07/18 05:04:06;;;;;;;12.43;5.22;;;12.90;99.90;;;;;;4970012;28;20034;-60
2023/07/18 05:06:31;;;;;;;11.88;4.90;;;13.00;99.90;;;;;;4965627;28;20030;-58
2023/07/18 05:08:57;;;;;;;8.85;4.40;;;13.00;99.90;;;;;;4971216;28;20051;-57
2023/07/18 05:11:22;;;;;;;13.68;4.70;;;13.10;99.90;;;;;;4970338;28;20113;-58
2023/07/18 05:13:48;;;;;;;10.63;4.32;;;13.10;99.90;;;;;;4968546;28;20047;-54
2023/07/18 05:16:13;;;;;;;10.57;4.78;;;13.20;99.90;;;;;;4970900;28;20029;-53
2023/07/18 05:18:39;;;;;;;12.68;5.32;;;13.30;99.90;;;;;;4970261;28;20401;-58
2023/07/18 05:21:04;;;;;;;12.23;4.90;;;13.30;99.90;;;;;;4968480;28;20029;-56
2023/07/18 05:23:30;;;;;;;10.15;4.88;;;13.40;99.90;;;;;;4964817;28;20031;-56
2023/07/18 05:25:57;;;;;;;10.48;4.82;;;13.50;99.90;;;;;;4966485;28;20029;-59
2023/07/18 05:28:23;;;;;;;8.95;4.25;;;13.60;99.90;;;;;;4967462;28;20133;-57
2023/07/18 05:30:49;;;;;;;10.65;5.47;;;13.60;99.90;;;;;;4964115;28;20027;-57
2023/07/18 05:33:14;;;;;;;11.60;4.40;;;13.70;99.90;;;;;;4963909;28;20427;-56
2023/07/18 05:35:40;;;;;;;10.25;4.25;;;13.80;99.90;;;;;;4963474;28;20019;-56
2023/07/18 05:38:06;;;;;;;10.30;4.53;;;13.90;99.90;;;;;;4966964;28;20034;-53
2023/07/18 05:40:32;;;;;;;11.45;4.43;;;13.90;99.90;;;;;;4966560;28;20105;-55
2023/07/18 05:42:57;;;;;;;17.08;5.07;;;14.00;99.90;;;;;;4971503;28;20150;-57
2023/07/18 05:45:23;;;;;;;14.82;4.40;;;14.10;99.90;;;;;;4965131;28;20046;-54
2023/07/18 05:47:48;;;;;;;7.10;4.28;;;14.10;99.90;;;;;;4964807;28;20034;-57
2023/07/18 05:50:14;;;;;;;10.10;4.70;;;14.20;99.90;;;;;;4971109;28;20153;-56
2023/07/18 05:52:40;;;;;;;10.63;4.40;;;14.30;99.90;;;;;;4968470;28;20037;-56
2023/07/18 05:55:07;;;;;;;14.57;4.88;;;14.40;99.90;;;;;;4969218;28;20081;-53
2023/07/18 05:57:33;;;;;;;11.00;4.75;;;14.50;99.90;;;;;;4969603;28;20027;-53
2023/07/18 05:59:58;;;;;;;12.77;4.22;;;14.60;99.90;;;;;;4968631;28;20042;-56
2023/07/18 06:02:24;;;;;;;10.27;3.80;;;14.70;99.90;;;;;;4971759;28;20034;-54
2023/07/18 06:04:49;;;;;;;10.68;3.85;;;14.80;99.90;;;;;;4971461;28;20101;-56
2023/07/18 06:07:16;;;;;;;7.20;3.45;;;14.80;99.90;;;;;;4970978;28;20122;-54
2023/07/18 06:09:42;;;;;;;10.18;3.90;;;14.90;99.90;;;;;;4967629;28;20500;-52
2023/07/18 06:12:08;;;;;;;8.60;3.75;;;15.00;99.90;;;;;;4965981;28;20129;-55
2023/07/18 06:14:34;;;;;;;9.85;3.55;;;15.10;99.90;;;;;;4966830;28;20057;-56
2023/07/18 06:17:00;;;;;;;11.27;3.70;;;15.20;99.90;;;;;;4963163;28;20059;-54
2023/07/18 06:19:25;;;;;;;14.15;3.45;;;15.20;99.90;;;;;;4964589;28;20632;-56
2023/07/18 06:21:51;;;;;;;10.70;4.60;;;15.30;99.90;;;;;;4966409;28;20114;-56
2023/07/18 06:24:17;;;;;;;12.13;4.43;;;15.30;99.90;;;;;;4962308;28;20103;-60
2023/07/18 06:26:48;;;;;;;23.85;5.88;;;15.40;99.90;;;;;;4964273;28;20070;-60
2023/07/18 06:29:16;;;;;;;71.93;32.60;;;15.50;99.90;;;;;;4971108;28;20026;-60
2023/07/18 06:31:42;;;;;;;32.53;13.20;;;15.60;99.90;;;;;;4973006;28;20031;-61
2023/07/18 06:34:07;;;;;;;14.52;6.20;;;15.70;99.90;;;;;;4969179;28;20394;-59
2023/07/18 06:36:33;;;;;;;10.63;4.80;;;15.90;99.90;;;;;;4967570;28;20027;-52
2023/07/18 06:38:58;;;;;;;12.63;4.28;;;16.10;99.90;;;;;;4964325;28;20118;-61
2023/07/18 06:41:24;;;;;;;8.82;3.50;;;16.20;99.90;;;;;;4963306;28;20070;-60
2023/07/18 06:43:49;;;;;;;7.60;3.22;;;16.30;99.90;;;;;;4966289;28;20066;-61
2023/07/18 06:46:15;;;;;;;7.57;3.05;;;16.50;99.90;;;;;;4965003;28;20070;-59
2023/07/18 06:48:41;;;;;;;9.10;3.30;;;16.60;99.90;;;;;;4972991;28;20038;-60
2023/07/18 06:51:06;;;;;;;14.98;3.38;;;16.70;99.90;;;;;;4961452;28;20086;-60
2023/07/18 06:53:33;;;;;;;9.52;3.15;;;16.80;99.90;;;;;;4961435;28;20030;-60
2023/07/18 06:55:59;;;;;;;8.05;3.40;;;16.80;99.90;;;;;;4963282;28;20035;-58
2023/07/18 06:58:24;;;;;;;10.30;3.65;;;16.90;99.90;;;;;;4961851;28;20089;-61
2023/07/18 07:00:50;;;;;;;7.68;3.60;;;16.90;99.90;;;;;;4963995;28;20110;-58
2023/07/18 07:03:15;;;;;;;8.68;3.22;;;17.00;99.90;;;;;;4965934;28;20030;-59
2023/07/18 07:05:43;;;;;;;5.78;3.42;;;17.00;99.90;;;;;;4962061;28;20065;-57
2023/07/18 07:08:09;;;;;;;7.28;3.75;;;17.10;99.90;;;;;;4961392;28;20094;-60
2023/07/18 07:10:42;;;;;;;6.70;2.95;;;17.10;99.90;;;;;;4965385;28;20027;-53
2023/07/18 07:13:09;;;;;;;7.72;3.33;;;17.10;99.90;;;;;;4960943;28;20038;-57
2023/07/18 07:15:35;;;;;;;8.20;3.50;;;17.20;99.90;;;;;;4958549;28;20486;-60
2023/07/18 07:18:04;;;;;;;10.40;4.10;;;17.30;99.90;;;;;;4965842;28;20027;-56
2023/07/18 07:20:31;;;;;;;13.65;4.15;;;17.30;99.90;;;;;;4966044;28;20027;-52
2023/07/18 07:22:57;;;;;;;6.95;3.33;;;17.30;99.90;;;;;;4959895;28;20034;-58
2023/07/18 07:25:27;;;;;;;11.35;3.88;;;17.30;99.90;;;;;;4957699;28;20024;-58
2023/07/18 07:27:52;;;;;;;8.55;3.15;;;17.30;99.90;;;;;;4958816;28;20081;-59
2023/07/18 07:30:18;;;;;;;8.18;3.60;;;17.30;99.90;;;;;;4958740;28;20042;-57
2023/07/18 07:32:45;;;;;;;8.27;3.72;;;17.30;99.90;;;;;;4963561;28;20039;-60
2023/07/18 07:35:11;;;;;;;14.60;3.70;;;17.50;99.90;;;;;;4959430;28;20046;-58
2023/07/18 07:37:40;;;;;;;10.00;2.90;;;17.50;99.90;;;;;;4967230;28;20034;-56
2023/07/18 07:40:09;;;;;;;11.27;3.63;;;17.70;99.90;;;;;;4961631;28;20024;-57
2023/07/18 07:42:34;;;;;;;56.70;28.38;;;17.80;99.90;;;;;;4963324;28;20054;-57
2023/07/18 07:45:00;;;;;;;15.80;5.85;;;17.90;99.90;;;;;;4963464;28;20063;-58
2023/07/18 07:47:26;;;;;;;16.05;6.78;;;18.00;99.90;;;;;;4967174;28;20042;-59
2023/07/18 07:49:51;;;;;;;9.80;5.43;;;18.10;99.90;;;;;;4959712;28;20034;-59
2023/07/18 07:52:17;;;;;;;7.32;3.58;;;18.20;99.90;;;;;;4967699;28;20038;-59
2023/07/18 07:54:44;;;;;;;10.93;3.58;;;18.30;99.90;;;;;;4960865;28;20127;-59
2023/07/18 07:57:10;;;;;;;6.75;3.00;;;18.50;99.90;;;;;;4966435;28;20066;-58
2023/07/18 07:59:36;;;;;;;7.40;3.40;;;18.50;99.90;;;;;;4962435;28;20031;-58
2023/07/18 08:02:01;;;;;;;7.53;2.75;;;18.60;99.90;;;;;;4965726;28;20039;-59
2023/07/18 08:04:27;;;;;;;11.73;4.05;;;18.80;99.90;;;;;;4961527;28;20026;-59
2023/07/18 08:06:55;;;;;;;11.18;3.25;;;18.90;99.90;;;;;;4966195;28;20034;-56
2023/07/18 08:09:22;;;;;;;6.78;2.85;;;19.10;99.90;;;;;;4959359;28;20023;-59
2023/07/18 08:11:48;;;;;;;8.15;2.63;;;19.30;99.90;;;;;;4965452;28;20468;-58
2023/07/18 08:14:14;;;;;;;7.93;2.65;;;19.50;99.90;;;;;;4959428;28;20020;-57
2023/07/18 08:16:40;;;;;;;9.35;3.20;;;19.70;99.90;;;;;;4968164;28;20031;-59
2023/07/18 08:19:06;;;;;;;5.32;2.30;;;19.80;99.90;;;;;;4964609;28;20089;-58
2023/07/18 08:21:31;;;;;;;8.18;3.08;;;19.80;99.90;;;;;;4962278;28;20031;-58
2023/07/18 08:23:57;;;;;;;7.40;2.63;;;19.90;99.90;;;;;;4969541;28;20031;-59
2023/07/18 08:26:22;;;;;;;6.05;2.30;;;20.00;99.90;;;;;;4968311;28;20023;-60
2023/07/18 08:28:48;;;;;;;4.90;1.92;;;20.10;99.90;;;;;;4969136;28;20030;-58
2023/07/18 08:31:13;;;;;;;8.15;3.28;;;20.20;99.90;;;;;;4967767;28;20034;-59
2023/07/18 08:33:39;;;;;;;9.88;2.95;;;20.30;99.90;;;;;;4968263;28;20042;-59
2023/07/18 08:36:05;;;;;;;7.95;3.22;;;20.40;99.90;;;;;;4961843;28;20047;-57
2023/07/18 08:38:30;;;;;;;9.13;2.33;;;20.50;99.90;;;;;;4965754;28;20049;-54
2023/07/18 08:40:58;;;;;;;6.28;2.50;;;20.70;99.90;;;;;;4961114;28;20505;-57
2023/07/18 08:43:24;;;;;;;9.73;2.88;;;20.80;99.90;;;;;;4968242;28;20026;-56
2023/07/18 08:45:51;;;;;;;15.18;2.42;;;20.90;99.90;;;;;;4969964;28;20045;-59
2023/07/18 08:48:17;;;;;;;5.53;2.30;;;21.00;99.90;;;;;;4965639;28;20031;-59
2023/07/18 08:50:43;;;;;;;6.40;2.05;;;21.20;99.90;;;;;;4964295;28;20512;-56
2023/07/18 08:53:09;;;;;;;8.00;2.20;;;21.20;99.90;;;;;;4960641;28;20035;-56
2023/07/18 08:55:36;;;;;;;7.38;2.78;;;21.20;99.90;;;;;;4961066;28;20437;-57
2023/07/18 08:58:02;;;;;;;4.05;1.90;;;21.20;99.90;;;;;;4965884;28;20078;-56
2023/07/18 09:00:28;;;;;;;12.27;3.38;;;21.10;99.90;;;;;;4962997;28;20630;-59
2023/07/18 09:02:54;;;;;;;10.38;2.95;;;21.10;99.90;;;;;;4964664;28;20027;-57
2023/07/18 09:05:30;;;;;;;11.75;2.55;;;21.10;99.90;;;;;;4961245;28;20054;-58
2023/07/18 09:07:58;;;;;;;6.32;2.10;;;21.30;99.90;;;;;;4965156;28;20022;-56
2023/07/18 09:10:24;;;;;;;3.08;1.58;;;21.30;99.90;;;;;;4962873;28;20118;-55
2023/07/18 09:12:49;;;;;;;38.97;4.10;;;21.60;99.90;;;;;;4963617;28;20035;-56
2023/07/18 09:15:19;;;;;;;11.93;5.45;;;21.70;99.90;;;;;;4960526;28;20384;-57
2023/07/18 09:17:59;;;;;;;8.25;2.47;;;21.90;99.90;;;;;;4967753;28;20030;-57
2023/07/18 09:20:26;;;;;;;6.43;2.38;;;22.20;99.90;;;;;;4958307;28;20652;-60
2023/07/18 09:22:56;;;;;;;4.72;2.22;;;22.60;99.90;;;;;;4966967;28;20554;-58
2023/07/18 09:25:25;;;;;;;7.15;2.45;;;22.50;99.90;;;;;;4961640;28;20034;-59
2023/07/18 09:27:55;;;;;;;6.18;2.10;;;22.50;99.90;;;;;;4958756;28;20077;-59
2023/07/18 09:30:33;;;;;;;6.05;2.70;;;22.60;99.90;;;;;;4959855;28;20030;-57
2023/07/18 09:33:02;;;;;;;7.20;1.88;;;22.90;99.90;;;;;;4961013;28;20078;-58
2023/07/18 09:35:27;;;;;;;9.02;2.50;;;23.10;99.90;;;;;;4964379;28;20069;-58
2023/07/18 09:37:53;;;;;;;10.02;2.35;;;23.40;99.90;;;;;;4962632;28;20389;-58
2023/07/18 09:40:19;;;;;;;9.73;4.78;;;23.30;99.90;;;;;;4962774;28;20023;-55
2023/07/18 09:42:46;;;;;;;5.18;2.60;;;23.30;99.90;;;;;;4957910;28;20030;-58
2023/07/18 09:45:16;;;;;;;7.88;2.60;;;23.10;99.90;;;;;;4962733;28;20034;-55
2023/07/18 09:47:43;;;;;;;11.35;2.67;;;23.00;99.90;;;;;;4958671;28;20034;-58
2023/07/18 09:50:12;;;;;;;4.30;2.10;;;22.80;99.90;;;;;;4963464;28;20035;-58
2023/07/18 09:52:49;;;;;;;4.22;1.80;;;22.80;99.90;;;;;;4958966;28;20032;-57
2023/07/18 09:55:21;;;;;;;3.55;2.00;;;22.90;99.90;;;;;;4967811;28;20197;-58
2023/07/18 09:57:49;;;;;;;4.78;1.60;;;23.20;99.90;;;;;;4960252;28;20102;-58
2023/07/18 10:00:15;;;;;;;6.05;2.03;;;23.50;99.90;;;;;;4962348;28;20019;-56
2023/07/18 10:02:41;;;;;;;6.30;2.35;;;23.80;99.90;;;;;;4961957;28;20022;-57
2023/07/18 10:05:09;;;;;;;3.38;2.03;;;24.20;99.90;;;;;;4967806;28;20479;-57
2023/07/18 10:07:39;;;;;;;5.63;2.20;;;24.20;98.80;;;;;;4964182;28;20560;-57
2023/07/18 10:10:08;;;;;;;5.53;2.15;;;24.00;99.20;;;;;;4968897;28;20049;-56
2023/07/18 10:12:37;;;;;;;9.82;2.95;;;23.90;99.90;;;;;;4963487;28;20130;-58
2023/07/18 10:15:04;;;;;;;5.15;2.08;;;23.90;99.90;;;;;;4964095;28;20519;-58
2023/07/18 10:17:35;;;;;;;7.63;2.58;;;23.80;99.30;;;;;;4964941;28;20026;-55
2023/07/18 10:20:18;;;;;;;9.63;2.47;;;23.60;99.90;;;;;;4965127;28;20031;-57
2023/07/18 10:22:48;;;;;;;10.00;2.65;;;23.60;99.90;;;;;;4967331;28;20023;-56
2023/07/18 10:25:17;;;;;;;7.93;2.45;;;23.60;99.90;;;;;;4967830;28;20107;-59
2023/07/18 10:27:44;;;;;;;7.13;2.35;;;23.50;99.90;;;;;;4968129;28;20594;-58
2023/07/18 10:30:17;;;;;;;8.40;2.13;;;23.50;99.90;;;;;;4964661;28;20031;-56
2023/07/18 10:32:51;;;;;;;7.00;3.05;;;23.80;99.90;;;;;;4968913;28;20686;-57
2023/07/18 10:35:19;;;;;;;6.15;2.08;;;23.70;99.90;;;;;;4964489;28;20110;-57
2023/07/18 10:37:49;;;;;;;8.07;1.92;;;23.80;99.70;;;;;;4969988;28;20101;-57
2023/07/18 10:40:39;;;;;;;5.70;2.42;;;23.90;99.90;;;;;;4959646;28;20027;-59
2023/07/18 10:43:15;;;;;;;5.63;1.83;;;23.70;99.90;;;;;;4968483;28;20034;-57
2023/07/18 10:45:41;;;;;;;8.10;2.53;;;23.90;99.40;;;;;;4964125;28;20730;-56
2023/07/18 10:48:13;;;;;;;8.63;2.42;;;23.70;99.80;;;;;;4963517;28;20044;-56
2023/07/18 10:50:40;;;;;;;5.03;2.40;;;23.70;99.80;;;;;;4964348;28;20031;-60
2023/07/18 10:53:10;;;;;;;7.22;1.92;;;23.80;99.90;;;;;;4963714;28;20038;-58
2023/07/18 10:55:36;;;;;;;7.13;2.90;;;23.90;99.30;;;;;;4965585;28;20488;-58
2023/07/18 10:58:01;;;;;;;5.30;2.55;;;24.20;99.70;;;;;;4965047;28;20054;-58
2023/07/18 11:00:27;;;;;;;6.97;2.20;;;24.70;98.30;;;;;;4967708;28;20129;-59
2023/07/18 11:02:52;;;;;;;5.85;2.47;;;25.40;98.00;;;;;;4966225;28;20026;-57
2023/07/18 11:05:18;;;;;;;11.63;3.80;;;25.70;95.80;;;;;;4965980;28;20027;-59
2023/07/18 11:07:46;;;;;;;4.75;2.05;;;25.80;96.10;;;;;;4961965;28;20073;-57
2023/07/18 11:10:13;;;;;;;5.13;2.47;;;25.60;96.40;;;;;;4965197;28;20027;-58
2023/07/18 11:12:40;;;;;;;7.82;2.25;;;25.90;95.40;;;;;;4961171;28;20035;-60
2023/07/18 11:15:07;;;;;;;3.97;1.88;;;25.90;94.50;;;;;;4966399;28;20011;-59
2023/07/18 11:17:34;;;;;;;5.32;2.22;;;25.70;94.20;;;;;;4959647;28;20054;-57
2023/07/18 11:19:59;;;;;;;4.20;2.10;;;25.40;97.00;;;;;;4967175;28;20027;-60
2023/07/18 11:22:26;;;;;;;9.40;2.70;;;25.40;94.30;;;;;;4959097;28;20043;-60
2023/07/18 11:24:52;;;;;;;10.90;2.40;;;25.10;93.90;;;;;;4968953;28;20034;-60
2023/07/18 11:27:27;;;;;;;4.53;2.17;;;25.40;94.60;;;;;;4959215;28;20049;-57
2023/07/18 11:30:01;;;;;;;7.82;1.85;;;25.50;94.60;;;;;;4969711;28;20037;-59
2023/07/18 11:32:39;;;;;;;7.40;2.30;;;25.60;93.30;;;;;;4962253;28;20054;-58
2023/07/18 11:35:09;;;;;;;5.40;2.30;;;25.70;94.00;;;;;;4963994;28;20725;-60
2023/07/18 11:37:41;;;;;;;8.35;2.17;;;26.00;93.40;;;;;;4962617;28;20023;-59
2023/07/18 11:40:07;;;;;;;7.32;2.25;;;25.90;92.20;;;;;;4963916;28;20031;-60
2023/07/18 11:42:46;;;;;;;7.15;2.30;;;25.80;93.00;;;;;;4963178;28;20027;-57
2023/07/18 11:45:12;;;;;;;7.45;2.15;;;25.30;93.00;;;;;;4963717;28;20034;-59
2023/07/18 11:47:50;;;;;;;8.45;2.40;;;25.10;95.40;;;;;;4965569;28;20508;-57
2023/07/18 11:50:16;;;;;;;6.28;1.92;;;25.20;94.40;;;;;;4967661;28;20039;-58
2023/07/18 11:52:47;;;;;;;10.50;2.42;;;24.80;94.60;;;;;;4966229;28;20037;-60
2023/07/18 11:55:17;;;;;;;8.45;2.22;;;24.80;93.90;;;;;;4958730;28;20033;-58
2023/07/18 11:57:44;;;;;;;7.88;2.55;;;25.00;94.00;;;;;;4968240;28;20090;-58
2023/07/18 12:00:13;;;;;;;9.23;2.75;;;24.80;94.30;;;;;;4960124;28;20043;-59
2023/07/18 12:02:38;;;;;;;6.68;2.42;;;24.80;94.30;;;;;;4968315;28;20166;-56
2023/07/18 12:05:05;;;;;;;8.18;2.53;;;25.50;95.30;;;;;;4961199;28;20494;-57
2023/07/18 12:07:31;;;;;;;7.00;2.65;;;25.50;94.40;;;;;;4965090;28;20031;-57
2023/07/18 12:09:57;;;;;;;5.30;2.45;;;25.00;92.40;;;;;;4962569;28;20035;-57
2023/07/18 12:12:23;;;;;;;5.55;2.53;;;25.10;93.00;;;;;;4964545;28;20155;-58
2023/07/18 12:14:52;;;;;;;8.82;2.30;;;25.10;92.80;;;;;;4962661;28;20023;-57
2023/07/18 12:17:18;;;;;;;7.80;2.38;;;25.00;93.20;;;;;;4965904;28;20257;-57
2023/07/18 12:19:44;;;;;;;11.10;3.05;;;24.80;94.60;;;;;;4969182;28;20094;-59
2023/07/18 12:22:10;;;;;;;5.97;2.53;;;24.80;94.30;;;;;;4966767;28;20539;-60
2023/07/18 12:24:36;;;;;;;16.55;4.43;;;25.00;94.90;;;;;;4963755;28;20023;-54
2023/07/18 12:27:03;;;;;;;6.90;2.45;;;25.00;94.30;;;;;;4964499;28;20022;-58
2023/07/18 12:29:28;;;;;;;5.40;2.30;;;25.10;92.80;;;;;;4961509;28;20417;-57
2023/07/18 12:31:55;;;;;;;6.90;2.75;;;25.40;93.00;;;;;;4965057;28;20035;-59
2023/07/18 12:34:20;;;;;;;6.78;2.33;;;25.90;91.90;;;;;;4961459;28;20121;-57
2023/07/18 12:36:47;;;;;;;5.35;2.50;;;26.30;91.20;;;;;;4965777;28;20066;-57
2023/07/18 12:39:14;;;;;;;3.65;2.08;;;26.40;91.00;;;;;;4962672;28;20019;-57
2023/07/18 12:41:39;;;;;;;4.95;2.72;;;26.70;90.30;;;;;;4964867;28;20027;-58